Current | Forecast
Updated: 10:30 AM EEST on April 26, 2017
Observed at Rivne, Ukraine
Temperature 18°C
Humidity 42%
Dew Point 5°C
Wind SSW at 29 km/h
Pressure 1010 hPa (Steady)
Conditions Mostly Cloudy
Visibility 10.0 kilometers
UV 3 out of 16
Clouds (FEW) : 1005 m
Mostly Cloudy (BKN) : 3048 m
Yesterday's Maximum 19°C
Yesterday's Minimum 2°C approx.
Yesterday's Heating Degree Days 14 approx.
Sunrise5:58 AM EEST
Sunset8:27 PM EEST
Moon Rise6:21 AM EEST
Moon Set8:21 PM EEST
Moon PhaseMoon Phase
Waning Crescent
Raw METARMETAR UKLR 260730Z 20008MPS 9999 FEW033 BKN100 18/05 Q1010 R11/090070 NOSIG


Monday
. High: 62° F.
Tuesday
. High: 62° F.
Wednesday
. High: 75° F.
Thursday
. High: 75° F.
Friday
. High: 69° F.
Saturday
. High: 62° F.
Sunday
. High: 68° F.
Monday
. High: 77° F.

Units: English | Metric

Find the Weather for any City, State or Zipcode, or Country:

U.S. State List | Severe Weather | Tropical Storms | Ski Conditions
United States | Canada | Central America | South America | Asia | Europe | Australia | Africa | Islands

Weather Underground

© Copyright 2017
The Weather Company, LLC